createdAt,value
2019-02-14T00:02:07.396Z,30.73
2019-02-14T00:05:16.398Z,30.00
2019-02-14T00:08:17.893Z,30.97
2019-02-14T00:11:22.186Z,30.03
2019-02-14T00:14:26.487Z,31.03
2019-02-14T00:17:30.788Z,32.40
2019-02-14T00:20:35.101Z,29.67
2019-02-14T00:23:39.396Z,31.13
2019-02-14T00:26:43.677Z,30.80
2019-02-14T00:29:47.967Z,33.27
2019-02-14T00:32:52.244Z,32.17
2019-02-14T00:35:56.528Z,31.43
2019-02-14T00:39:00.881Z,31.83
2019-02-14T00:42:05.469Z,32.03
2019-02-14T00:45:09.731Z,30.93
2019-02-14T00:48:15.511Z,31.00
2019-02-14T00:51:19.819Z,30.93
2019-02-14T00:54:24.120Z,32.23
2019-02-14T00:57:28.307Z,30.27
2019-02-14T01:00:32.615Z,30.17
2019-02-14T01:03:36.895Z,30.57
2019-02-14T01:06:41.241Z,31.33
2019-02-14T01:09:45.522Z,30.50
2019-02-14T01:12:50.797Z,30.67
2019-02-14T01:15:55.376Z,30.10
2019-02-14T01:18:59.698Z,30.63
2019-02-14T01:22:04.047Z,31.97
2019-02-14T01:25:08.347Z,30.23
2019-02-14T01:28:12.663Z,28.70
2019-02-14T01:31:16.984Z,31.03
2019-02-14T01:34:21.251Z,31.83
2019-02-14T01:37:25.559Z,31.00
2019-02-14T01:40:29.828Z,29.77
2019-02-14T01:43:34.128Z,32.00
2019-02-14T01:46:38.464Z,32.60
2019-02-14T01:49:42.795Z,32.93
2019-02-14T01:52:47.184Z,32.80
2019-02-14T01:55:51.529Z,31.10
2019-02-14T01:58:55.797Z,32.87
2019-02-14T02:02:00.096Z,32.33
2019-02-14T02:05:04.400Z,33.60
2019-02-14T02:08:09.079Z,30.57
2019-02-14T02:11:13.515Z,30.73
2019-02-14T02:14:17.893Z,31.20
2019-02-14T02:17:22.159Z,32.30
2019-02-14T02:20:33.176Z,31.43
2019-02-14T02:23:32.644Z,30.03
2019-02-14T02:26:37.012Z,31.63
2019-02-14T02:29:41.278Z,30.83
2019-02-14T02:32:45.496Z,31.47
2019-02-14T02:35:49.760Z,30.03
2019-02-14T02:38:54.385Z,29.73
2019-02-14T02:41:58.657Z,30.10
2019-02-14T02:45:03.040Z,30.90
2019-02-14T02:48:07.373Z,29.37
2019-02-14T02:51:11.772Z,29.07
2019-02-14T02:54:16.112Z,29.53
2019-02-14T02:57:20.605Z,28.13
2019-02-14T03:00:24.881Z,29.50
2019-02-14T03:03:29.187Z,29.77
2019-02-14T03:06:33.448Z,29.10
2019-02-14T03:09:37.753Z,29.37
2019-02-14T03:12:42.025Z,30.07
2019-02-14T03:15:46.321Z,29.03
2019-02-14T03:18:50.580Z,29.23
2019-02-14T03:21:54.916Z,29.93
2019-02-14T03:24:59.261Z,32.07
2019-02-14T03:28:03.629Z,29.33
2019-02-14T03:31:07.901Z,27.93
2019-02-14T03:34:12.284Z,29.27
2019-02-14T03:37:16.622Z,29.97
2019-02-14T03:40:21.035Z,30.03
2019-02-14T03:43:25.316Z,31.37
2019-02-14T03:46:29.689Z,28.17
2019-02-14T03:49:33.952Z,31.13
2019-02-14T03:52:38.351Z,32.33
2019-02-14T03:55:42.675Z,30.37
2019-02-14T03:58:46.985Z,28.10
2019-02-14T04:01:51.331Z,28.77
2019-02-14T04:04:55.647Z,28.73
2019-02-14T04:07:59.919Z,31.37
2019-02-14T04:11:04.440Z,30.57
2019-02-14T04:14:08.787Z,29.37
2019-02-14T04:17:13.301Z,29.40
2019-02-14T04:20:17.651Z,28.43
2019-02-14T04:23:22.036Z,29.37
2019-02-14T04:26:26.514Z,28.87
2019-02-14T04:29:30.820Z,28.17
2019-02-14T04:32:35.084Z,30.17
2019-02-14T04:35:39.380Z,30.20
2019-02-14T04:38:43.584Z,31.13
2019-02-14T04:41:47.996Z,29.03
2019-02-14T04:44:52.258Z,31.90
2019-02-14T04:47:56.644Z,30.20
2019-02-14T04:51:00.989Z,30.13
2019-02-14T04:54:05.492Z,28.53
2019-02-14T04:57:09.767Z,28.90
2019-02-14T05:00:14.190Z,29.17
2019-02-14T05:03:18.525Z,27.63
2019-02-14T05:06:22.836Z,29.40
2019-02-14T05:09:27.167Z,27.97
2019-02-14T05:12:31.487Z,28.70
2019-02-14T05:15:35.768Z,27.17
2019-02-14T05:18:40.068Z,27.53
2019-02-14T05:21:44.343Z,28.73
2019-02-14T05:24:48.634Z,27.10
2019-02-14T05:27:52.916Z,26.93
2019-02-14T05:30:57.224Z,27.07
2019-02-14T05:34:01.504Z,26.70
2019-02-14T05:37:05.913Z,26.40
2019-02-14T05:40:10.396Z,26.47
2019-02-14T05:43:14.751Z,26.60
2019-02-14T05:46:19.047Z,24.50
2019-02-14T05:49:23.351Z,27.10
2019-02-14T05:52:27.816Z,26.57
2019-02-14T05:55:32.120Z,25.77
2019-02-14T05:58:36.445Z,25.90
2019-02-14T06:01:40.768Z,24.67
2019-02-14T06:04:45.030Z,25.67
2019-02-14T06:07:49.393Z,26.63
2019-02-14T06:10:53.883Z,25.27
2019-02-14T06:13:58.215Z,24.83
2019-02-14T06:17:02.773Z,26.60
2019-02-14T06:20:07.846Z,25.50
2019-02-14T06:23:12.210Z,24.40
2019-02-14T06:26:16.509Z,25.03
2019-02-14T06:29:20.861Z,24.60
2019-02-14T06:32:26.686Z,26.17
2019-02-14T06:35:31.097Z,26.17
2019-02-14T06:38:35.404Z,25.20
2019-02-14T06:41:39.666Z,26.53
2019-02-14T06:44:43.968Z,26.90
2019-02-14T06:47:48.252Z,26.67
2019-02-14T06:50:54.758Z,25.73
2019-02-14T06:53:59.159Z,26.77
2019-02-14T06:57:03.488Z,26.20
2019-02-14T07:00:09.183Z,27.67
2019-02-14T07:03:13.489Z,26.27
2019-02-14T07:06:17.839Z,27.87
2019-02-14T07:09:22.151Z,28.43
2019-02-14T07:12:26.592Z,28.50
2019-02-14T07:15:31.019Z,29.60
2019-02-14T07:18:35.383Z,27.77
2019-02-14T07:21:39.763Z,30.13
2019-02-14T07:24:44.044Z,28.37
2019-02-14T07:27:48.353Z,29.63
2019-02-14T07:30:52.712Z,29.27
2019-02-14T07:33:57.099Z,30.30
2019-02-14T07:37:01.444Z,29.13
2019-02-14T07:40:06.631Z,29.40
2019-02-14T07:43:10.974Z,29.60
2019-02-14T07:46:22.541Z,29.47
2019-02-14T07:49:21.412Z,33.10
2019-02-14T07:52:25.783Z,32.77
2019-02-14T07:55:30.073Z,34.37
2019-02-14T07:58:34.448Z,33.20
2019-02-14T08:01:38.760Z,32.60
2019-02-14T08:04:43.077Z,33.70
2019-02-14T08:07:47.416Z,34.23
2019-02-14T08:10:51.702Z,33.67
2019-02-14T08:13:56.077Z,34.37
2019-02-14T08:17:00.466Z,32.97
2019-02-14T08:20:05.192Z,32.07
2019-02-14T08:23:09.513Z,32.83
2019-02-14T08:26:13.780Z,34.03
2019-02-14T08:29:18.090Z,34.47
2019-02-14T08:32:22.404Z,34.67
2019-02-14T08:35:26.717Z,32.13
2019-02-14T08:38:31.016Z,33.33
2019-02-14T08:41:35.411Z,32.07
2019-02-14T08:44:39.687Z,30.50
2019-02-14T08:47:44.082Z,31.60
2019-02-14T08:50:48.421Z,26.50
2019-02-14T08:53:52.940Z,28.23
2019-02-14T08:56:57.226Z,26.73
2019-02-14T09:00:01.603Z,24.03
2019-02-14T09:03:05.933Z,22.83
2019-02-14T09:06:10.299Z,19.63
2019-02-14T09:09:14.611Z,17.47
2019-02-14T09:12:19.005Z,16.10
2019-02-14T09:15:23.352Z,16.17
2019-02-14T09:18:27.682Z,16.00
2019-02-14T09:21:31.983Z,16.00
2019-02-14T09:24:36.374Z,15.00
2019-02-14T09:27:40.817Z,15.00
2019-02-14T09:30:45.117Z,14.80
2019-02-14T09:33:49.381Z,14.20
2019-02-14T09:36:53.692Z,14.17
2019-02-14T09:39:58.049Z,14.07
2019-02-14T09:43:02.485Z,14.30
2019-02-14T09:46:06.868Z,14.87
2019-02-14T09:49:11.256Z,13.73
2019-02-14T09:52:15.605Z,13.17
2019-02-14T09:55:19.934Z,13.90
2019-02-14T09:58:24.273Z,13.90
2019-02-14T10:01:28.694Z,13.13
2019-02-14T10:04:33.136Z,12.90
2019-02-14T10:07:37.522Z,12.70
2019-02-14T10:10:41.877Z,12.87
2019-02-14T10:13:46.234Z,12.03
2019-02-14T10:16:50.568Z,11.70
2019-02-14T10:19:54.902Z,12.23
2019-02-14T10:22:59.193Z,12.47
2019-02-14T10:26:03.564Z,12.57
2019-02-14T10:29:07.866Z,11.80
2019-02-14T10:32:12.197Z,12.67
2019-02-14T10:35:16.532Z,12.23
2019-02-14T10:38:22.660Z,11.00
2019-02-14T10:41:26.928Z,11.77
2019-02-14T10:44:31.262Z,11.07
2019-02-14T10:47:35.608Z,12.10
2019-02-14T10:50:39.941Z,12.40
2019-02-14T10:53:44.481Z,12.70
2019-02-14T10:56:49.031Z,12.23
2019-02-14T10:59:53.503Z,11.93
2019-02-14T11:02:57.801Z,11.80
2019-02-14T11:06:02.296Z,12.30
2019-02-14T11:09:07.250Z,12.53
2019-02-14T11:12:11.541Z,13.57
2019-02-14T11:15:17.081Z,14.13
2019-02-14T11:18:21.907Z,14.33
2019-02-14T11:21:26.300Z,14.27
2019-02-14T11:24:30.661Z,14.43
2019-02-14T11:27:34.968Z,14.60
2019-02-14T11:30:39.256Z,14.93
2019-02-14T11:33:43.568Z,14.03
2019-02-14T11:36:47.924Z,14.33
2019-02-14T11:39:52.228Z,15.13
2019-02-14T11:42:56.530Z,14.70
2019-02-14T11:46:00.913Z,14.47
2019-02-14T11:49:05.185Z,14.33
2019-02-14T11:52:09.489Z,14.40
2019-02-14T11:55:13.912Z,14.80
2019-02-14T11:58:18.222Z,14.70
2019-02-14T12:01:22.496Z,14.67
2019-02-14T12:04:26.804Z,13.70
2019-02-14T12:07:31.065Z,12.90
2019-02-14T12:10:35.381Z,10.73
2019-02-14T12:13:39.690Z,9.27
2019-02-14T12:16:44.041Z,8.90
2019-02-14T12:19:49.003Z,8.63
2019-02-14T12:22:53.444Z,8.33
2019-02-14T12:25:57.741Z,9.07
2019-02-14T12:29:02.141Z,8.80
2019-02-14T12:32:06.438Z,9.23
2019-02-14T12:35:10.920Z,8.43
2019-02-14T12:38:15.223Z,7.63
2019-02-14T12:41:19.625Z,8.70
2019-02-14T12:44:24.075Z,8.13
2019-02-14T12:47:28.580Z,8.70
2019-02-14T12:50:32.952Z,9.03
2019-02-14T12:53:37.681Z,8.90
2019-02-14T12:56:42.029Z,8.00
2019-02-14T12:59:46.412Z,8.50
2019-02-14T13:02:50.917Z,8.33
2019-02-14T13:05:55.436Z,8.07
2019-02-14T13:08:59.706Z,9.00
2019-02-14T13:12:04.031Z,9.43
2019-02-14T13:15:10.994Z,11.03
2019-02-14T13:18:15.368Z,14.07
2019-02-14T13:21:19.726Z,16.43
2019-02-14T13:24:24.251Z,17.93
2019-02-14T13:27:29.015Z,18.43
2019-02-14T13:30:33.423Z,17.13
2019-02-14T13:33:37.897Z,17.90
2019-02-14T13:36:42.318Z,16.67
2019-02-14T13:39:46.835Z,16.90
2019-02-14T13:42:52.210Z,17.37
2019-02-14T13:45:56.626Z,17.20
2019-02-14T13:49:00.988Z,16.07
2019-02-14T13:52:06.473Z,16.30
2019-02-14T13:55:10.962Z,17.03
2019-02-14T13:58:15.399Z,15.40
2019-02-14T14:01:19.797Z,14.83
2019-02-14T14:04:24.298Z,16.53
2019-02-14T14:07:28.852Z,16.43
2019-02-14T14:10:33.196Z,15.93
2019-02-14T14:13:37.652Z,16.93
2019-02-14T14:16:42.212Z,16.40
2019-02-14T14:19:46.697Z,15.90
2019-02-14T14:22:51.111Z,14.80
2019-02-14T14:25:55.568Z,16.27
2019-02-14T14:29:00.348Z,16.47
2019-02-14T14:32:05.325Z,17.00
2019-02-14T14:35:11.046Z,16.17
2019-02-14T14:38:15.723Z,17.00
2019-02-14T14:41:20.142Z,15.80
2019-02-14T14:44:36.349Z,17.57
2019-02-14T14:47:40.718Z,17.77
2019-02-14T14:50:45.096Z,19.23
2019-02-14T14:53:49.451Z,18.83
2019-02-14T14:56:53.881Z,20.17
2019-02-14T14:59:58.230Z,18.23
2019-02-14T15:03:02.613Z,19.23
2019-02-14T15:06:07.005Z,19.67
2019-02-14T15:09:11.388Z,18.67
2019-02-14T15:12:15.701Z,19.37
2019-02-14T15:15:20.007Z,18.27
2019-02-14T15:18:24.519Z,19.43
2019-02-14T15:21:28.908Z,20.43
2019-02-14T15:24:33.193Z,21.23
2019-02-14T15:27:37.536Z,21.87
2019-02-14T15:30:41.898Z,22.13
2019-02-14T15:33:46.248Z,23.40
2019-02-14T15:36:51.816Z,22.20
2019-02-14T15:39:56.357Z,21.60
2019-02-14T15:43:00.700Z,22.03
2019-02-14T15:46:05.100Z,21.93
2019-02-14T15:49:09.466Z,24.30
2019-02-14T15:52:13.852Z,24.63
2019-02-14T15:55:19.520Z,24.33
2019-02-14T15:58:24.589Z,24.43
2019-02-14T16:01:29.035Z,25.77
2019-02-14T16:04:33.420Z,26.70
2019-02-14T16:07:39.501Z,27.47
2019-02-14T16:10:43.861Z,28.70
2019-02-14T16:13:48.221Z,29.80
2019-02-14T16:16:52.612Z,29.50
2019-02-14T16:19:57.705Z,31.40
2019-02-14T16:23:04.137Z,30.07
2019-02-14T16:26:09.141Z,30.93
2019-02-14T16:29:13.533Z,32.10
2019-02-14T16:32:17.997Z,33.47
2019-02-14T16:35:22.384Z,32.60
2019-02-14T16:38:26.746Z,35.53
2019-02-14T16:41:31.129Z,36.17
2019-02-14T16:44:35.498Z,40.30
2019-02-14T16:47:39.814Z,39.30
2019-02-14T16:50:44.191Z,39.97
2019-02-14T16:53:48.558Z,39.80
2019-02-14T16:56:52.847Z,39.50
2019-02-14T16:59:57.299Z,40.60
2019-02-14T17:03:01.713Z,40.43
2019-02-14T17:06:06.123Z,40.70
2019-02-14T17:09:10.480Z,41.63
2019-02-14T17:12:14.933Z,42.57
2019-02-14T17:15:19.285Z,41.50
2019-02-14T17:18:23.662Z,42.80
2019-02-14T17:21:28.937Z,44.63
2019-02-14T17:24:33.348Z,42.43
2019-02-14T17:27:37.772Z,44.97
2019-02-14T17:30:42.232Z,45.37
2019-02-14T17:33:46.662Z,46.20
2019-02-14T17:36:51.044Z,46.63
2019-02-14T17:39:55.445Z,47.37
2019-02-14T17:42:59.871Z,48.40
2019-02-14T17:46:04.238Z,47.80
2019-02-14T17:49:08.657Z,47.93
2019-02-14T17:52:12.959Z,47.20
2019-02-14T17:55:17.363Z,49.37
2019-02-14T17:58:21.772Z,47.53
2019-02-14T18:01:26.148Z,47.67
2019-02-14T18:04:30.515Z,52.63
2019-02-14T18:07:34.921Z,55.70
2019-02-14T18:10:39.333Z,57.23
2019-02-14T18:13:43.685Z,60.73
2019-02-14T18:16:48.041Z,63.77
2019-02-14T18:19:52.351Z,63.97
2019-02-14T18:22:56.635Z,65.83
2019-02-14T18:26:00.999Z,65.37
2019-02-14T18:29:05.812Z,67.80
2019-02-14T18:32:10.200Z,66.40
2019-02-14T18:35:14.676Z,69.67
2019-02-14T18:38:19.001Z,71.53
2019-02-14T18:41:25.625Z,73.80
2019-02-14T18:44:30.011Z,73.40
2019-02-14T18:47:39.651Z,74.70
2019-02-14T18:50:40.449Z,75.53
2019-02-14T18:53:44.887Z,76.23
2019-02-14T18:56:49.306Z,74.30
2019-02-14T18:59:53.678Z,69.80
2019-02-14T19:02:58.225Z,71.67
2019-02-14T19:06:02.651Z,70.37
2019-02-14T19:09:09.040Z,68.23
2019-02-14T19:12:13.443Z,66.70
2019-02-14T19:15:17.768Z,66.60
2019-02-14T19:18:22.217Z,60.23
2019-02-14T19:21:26.703Z,62.33
2019-02-14T19:24:31.161Z,62.30
2019-02-14T19:27:35.488Z,63.57
2019-02-14T19:30:39.861Z,63.33
2019-02-14T19:33:46.012Z,61.83
2019-02-14T19:36:50.402Z,63.13
2019-02-14T19:39:54.813Z,67.80
2019-02-14T19:43:00.811Z,66.77
2019-02-14T19:46:05.640Z,67.60
2019-02-14T19:49:10.131Z,67.97
2019-02-14T19:52:14.621Z,67.47
2019-02-14T19:55:19.092Z,71.30
2019-02-14T19:58:23.613Z,71.17
2019-02-14T20:01:28.073Z,67.73
2019-02-14T20:04:34.193Z,68.33
2019-02-14T20:07:39.127Z,89.27
2019-02-14T20:10:43.589Z,79.07
2019-02-14T20:13:49.776Z,88.80
2019-02-14T20:16:54.942Z,89.77
2019-02-14T20:20:01.523Z,83.30
2019-02-14T20:23:07.377Z,85.47
2019-02-14T20:26:11.806Z,84.47
2019-02-14T20:29:16.181Z,83.53
2019-02-14T20:32:20.560Z,84.17
2019-02-14T20:35:24.962Z,83.70
2019-02-14T20:38:29.396Z,83.57
2019-02-14T20:41:33.844Z,83.07
2019-02-14T20:44:38.238Z,81.47
2019-02-14T20:47:43.473Z,80.63
2019-02-14T20:50:47.970Z,82.10
2019-02-14T20:53:53.058Z,85.63
2019-02-14T20:56:57.611Z,80.77
2019-02-14T21:00:02.218Z,82.63
2019-02-14T21:03:10.194Z,86.20
2019-02-14T21:06:14.610Z,86.50
2019-02-14T21:09:19.018Z,85.80
2019-02-14T21:12:25.751Z,83.63
2019-02-14T21:15:30.132Z,84.30
2019-02-14T21:18:34.590Z,83.47
2019-02-14T21:21:38.962Z,83.87
2019-02-14T21:24:44.029Z,82.77
2019-02-14T21:27:48.863Z,79.63
2019-02-14T21:30:53.525Z,78.70
2019-02-14T21:33:57.923Z,78.37
2019-02-14T21:37:02.304Z,79.93
2019-02-14T21:40:07.663Z,76.07
2019-02-14T21:43:12.041Z,76.00
2019-02-14T21:46:16.730Z,73.90
2019-02-14T21:49:21.126Z,72.77
2019-02-14T21:52:25.518Z,70.80
2019-02-14T21:55:30.243Z,71.60
2019-02-14T21:58:34.684Z,71.60
2019-02-14T22:01:39.091Z,67.10
2019-02-14T22:04:43.456Z,68.77
2019-02-14T22:07:47.857Z,65.37
2019-02-14T22:10:52.345Z,65.07
2019-02-14T22:13:56.802Z,65.33
2019-02-14T22:17:01.175Z,64.07
2019-02-14T22:20:06.299Z,64.70
2019-02-14T22:23:10.715Z,63.93
2019-02-14T22:26:15.108Z,61.73
2019-02-14T22:29:19.405Z,63.33
2019-02-14T22:32:23.891Z,61.47
2019-02-14T22:35:28.231Z,61.17
2019-02-14T22:38:32.557Z,61.73
2019-02-14T22:41:36.925Z,61.53
2019-02-14T22:44:41.335Z,61.17
2019-02-14T22:47:48.701Z,61.43
2019-02-14T22:50:53.792Z,59.97
2019-02-14T22:53:58.573Z,59.40
2019-02-14T22:57:02.907Z,60.90
2019-02-14T23:00:18.230Z,60.77
2019-02-14T23:03:22.925Z,58.13
2019-02-14T23:06:27.792Z,57.43
2019-02-14T23:09:32.142Z,58.33
2019-02-14T23:12:36.510Z,67.60
2019-02-14T23:15:40.833Z,57.97
2019-02-14T23:18:45.220Z,58.73
2019-02-14T23:21:49.643Z,58.17
2019-02-14T23:24:54.703Z,58.37
2019-02-14T23:27:59.899Z,57.33
2019-02-14T23:31:05.029Z,55.60
2019-02-14T23:34:10.249Z,57.10
2019-02-14T23:37:15.367Z,55.20
2019-02-14T23:40:20.343Z,55.00
2019-02-14T23:43:25.513Z,55.43
2019-02-14T23:46:30.580Z,52.23
2019-02-14T23:49:35.540Z,51.17
2019-02-14T23:52:40.608Z,51.73
2019-02-14T23:55:45.693Z,50.03
2019-02-14T23:58:50.760Z,53.10
